Terminal Aerodrome Forecast
Issued by NWS Cleveland, OH

Home | Current Version | Previous Version | Graphics & Text | Print | Product List | Glossary Off
Versions: 1 2 3 4 5 6 7 8 9 10 11 12 13 14 15 16 17 18 19 20 21 22 23 24 25 26 27 28 29

000
FTUS41 KCLE 161100
TAFCLE
TAF
KCLE 161124Z 1612/1718 26003KT 4SM BR SCT002 OVC020
      TEMPO 1612/1613 1 1/2SM BR BKN002
     FM161400 36006KT P6SM BKN025
     FM161600 35006KT P6SM SCT045
     FM161800 35008KT P6SM SCT045
     FM170100 31004KT P6SM SKC
     FM171400 21005KT P6SM SCT250=

USA.gov is the U.S. government's official web portal to all federal, state and local government web resources and services.